Flugplatz Düsseldorf International

Bericht für EDDL

vom 22.03. um 21:50 UTC

variable Windrichtung mit 2 kt

Sichtweite 10 km oder mehr

gute Sicht, keine Wolken < 5000 ft, keine CB, keine Wettererscheinungen (CAVOK)

Temperatur 9.0°C

Taupunkt 3.0°C

Luftfeuchtigkeit 66%

Luftdruck 1026 hPa

keine wesentliche Wetteränderung innerhalb den nächsten 2 Stunden zu erwarten

EDDL 222150Z VRB02KT CAVOK 09/03 Q1026 NOSIG

Prognose für EDDL

vom 22.03. um 17:00 UTC

Zwischen 18:00 UTC und 00:00 UTC

Wind 8 kt aus 190°

Sichtweite 10 km oder mehr

keine signifikanten Wettererscheinungen

keine Wolken


Zwischen 18:00 und 21:00 UTC übergehend zu

variable Windrichtung mit 3 kt

Sichtweite 10 km oder mehr

keine signifikanten Wettererscheinungen

keine Wolken


Am 23.03. zwischen 04:00 UTC und 09:00 UTC zeitweise mit einer Wahrscheinlichkeit von 30%

aufgebrochene Bewölkung in 1200 ft


Am 23.03. zwischen 07:00 und 10:00 UTC übergehend zu

Wind 7 kt aus 330°

Sichtweite 10 km oder mehr

keine signifikanten Wettererscheinungen

keine Wolken

TAF EDDL 221700Z 2218/2324 19008KT CAVOK BECMG 2218/2221 VRB03KT PROB30 TEMPO 2304/2309 BKN012 BECMG 2307/2310 33007KT
Impressum